Time;durP1;ratioP1;P1;durP2;ratioP2;P2;SDS_P1;SDS_P2;PMS_P1;PMS_P2;Temp;Humidity;BMP_temperature;BMP_pressure;BME280_temperature;BME280_humidity;BME280_pressure;Samples;Min_cycle;Max_cycle;Signal;HPM_P1;HPM_P2
2021/10/28 00:14:00;;;;;;;33.88;6.07;;;14.60;99.90;;;;;;5040146;28;20044;-64
2021/10/28 00:16:30;;;;;;;31.25;7.38;;;14.60;99.90;;;;;;5039560;28;20048;-63
2021/10/28 00:19:03;;;;;;;33.13;6.55;;;14.50;99.90;;;;;;5041840;28;20065;-63
2021/10/28 00:21:35;;;;;;;40.22;7.18;;;14.50;99.90;;;;;;5040612;28;20351;-63
2021/10/28 00:24:04;;;;;;;37.90;6.47;;;14.50;99.90;;;;;;5041925;28;20341;-62
2021/10/28 00:26:35;;;;;;;28.00;6.13;;;14.50;99.90;;;;;;5039983;28;20227;-62
2021/10/28 00:29:07;;;;;;;29.33;6.30;;;14.50;99.90;;;;;;5042197;28;20024;-63
2021/10/28 00:31:36;;;;;;;27.48;6.55;;;14.50;99.90;;;;;;5041632;28;20033;-62
2021/10/28 00:34:02;;;;;;;31.23;6.00;;;14.40;99.90;;;;;;5040942;28;20240;-63
2021/10/28 00:36:28;;;;;;;35.95;6.85;;;14.40;99.90;;;;;;5039594;28;20399;-63
2021/10/28 00:38:55;;;;;;;32.35;6.32;;;14.40;99.90;;;;;;5041612;28;20040;-62
2021/10/28 00:41:22;;;;;;;34.60;7.38;;;14.40;99.90;;;;;;5040253;28;20032;-63
2021/10/28 00:43:56;;;;;;;27.38;5.68;;;14.40;99.90;;;;;;5040981;28;20031;-63
2021/10/28 00:46:28;;;;;;;31.52;6.10;;;14.40;99.90;;;;;;5041529;28;20025;-63
2021/10/28 00:48:55;;;;;;;35.03;7.55;;;14.40;99.90;;;;;;5040089;28;20196;-63
2021/10/28 00:51:24;;;;;;;35.15;8.45;;;14.40;99.90;;;;;;5041224;28;20033;-63
2021/10/28 00:53:52;;;;;;;33.20;6.65;;;14.40;99.90;;;;;;5039046;28;20044;-63
2021/10/28 00:56:21;;;;;;;43.15;7.72;;;14.40;99.90;;;;;;5038292;28;20035;-63
2021/10/28 00:58:47;;;;;;;33.60;7.32;;;14.40;99.90;;;;;;5007363;28;20021;-63
2021/10/28 01:01:14;;;;;;;29.45;6.28;;;14.40;99.90;;;;;;5040740;28;20036;-63
2021/10/28 01:03:41;;;;;;;30.80;7.25;;;14.40;99.90;;;;;;5024499;28;20209;-63
2021/10/28 01:06:08;;;;;;;39.35;7.75;;;14.40;99.90;;;;;;5040632;28;20029;-63
2021/10/28 01:08:38;;;;;;;22.05;5.68;;;14.40;99.90;;;;;;5041211;28;20048;-63
2021/10/28 01:11:06;;;;;;;27.13;6.80;;;14.40;99.90;;;;;;5039701;28;20052;-63
2021/10/28 01:13:34;;;;;;;29.73;6.10;;;14.40;99.90;;;;;;5006811;28;20029;-63
2021/10/28 01:16:01;;;;;;;30.27;6.68;;;14.40;99.90;;;;;;5038622;28;20033;-63
2021/10/28 01:18:28;;;;;;;28.92;7.15;;;14.40;99.90;;;;;;5039483;28;20029;-63
2021/10/28 01:20:55;;;;;;;27.27;5.97;;;14.40;99.90;;;;;;5038754;28;20322;-63
2021/10/28 01:23:23;;;;;;;27.30;5.63;;;14.40;99.90;;;;;;5041731;28;20076;-63
2021/10/28 01:26:01;;;;;;;27.17;5.80;;;14.40;99.90;;;;;;5038247;28;20041;-63
2021/10/28 01:28:30;;;;;;;33.92;6.70;;;14.40;99.90;;;;;;5042270;28;20343;-63
2021/10/28 01:31:02;;;;;;;28.75;6.93;;;14.40;99.90;;;;;;5040237;28;20039;-63
2021/10/28 01:33:29;;;;;;;28.98;6.50;;;14.40;99.90;;;;;;5023353;28;20059;-63
2021/10/28 01:35:55;;;;;;;33.38;6.65;;;14.40;99.90;;;;;;5021653;28;20355;-64
2021/10/28 01:38:24;;;;;;;35.70;7.15;;;14.40;99.90;;;;;;5041132;28;20409;-63
2021/10/28 01:41:02;;;;;;;31.80;7.47;;;14.40;99.90;;;;;;5036850;28;20238;-63
2021/10/28 01:43:30;;;;;;;36.90;7.80;;;14.30;99.90;;;;;;5042098;28;20104;-63
2021/10/28 01:45:56;;;;;;;28.60;7.22;;;14.30;99.90;;;;;;5039514;28;20025;-63
2021/10/28 01:48:23;;;;;;;36.25;7.90;;;14.30;99.90;;;;;;5041675;28;20505;-63
2021/10/28 01:50:49;;;;;;;37.35;7.60;;;14.20;99.90;;;;;;5039565;28;20051;-63
2021/10/28 01:53:16;;;;;;;40.15;8.98;;;14.20;99.90;;;;;;5040088;28;20036;-63
2021/10/28 01:55:43;;;;;;;37.95;8.95;;;14.10;99.90;;;;;;5039351;28;20331;-63
2021/10/28 01:58:14;;;;;;;29.30;7.07;;;14.10;99.90;;;;;;5041000;28;20037;-63
2021/10/28 02:00:41;;;;;;;41.83;8.65;;;14.10;99.90;;;;;;5039567;28;20029;-63
2021/10/28 02:03:07;;;;;;;40.47;8.32;;;14.10;99.90;;;;;;5040291;28;20026;-63
2021/10/28 02:05:34;;;;;;;32.60;8.30;;;14.10;99.90;;;;;;5039900;28;20115;-62
2021/10/28 02:08:00;;;;;;;35.28;7.85;;;14.10;99.90;;;;;;5039223;28;20096;-62
2021/10/28 02:10:25;;;;;;;36.53;8.70;;;14.10;99.90;;;;;;5040726;28;20409;-63
2021/10/28 02:12:55;;;;;;;39.30;7.78;;;14.10;99.90;;;;;;5040786;28;20093;-62
2021/10/28 02:15:22;;;;;;;;;;;14.10;99.90;;;;;;5039567;28;20040;-62
2021/10/28 02:17:47;;;;;;;38.15;8.50;;;14.10;99.90;;;;;;5039956;28;19943;-63
2021/10/28 02:20:16;;;;;;;44.28;8.05;;;14.10;99.90;;;;;;5039106;28;20208;-62
2021/10/28 02:22:43;;;;;;;31.63;6.83;;;14.10;99.90;;;;;;5041266;28;20430;-62
2021/10/28 02:25:11;;;;;;;44.00;8.35;;;14.10;99.90;;;;;;5041098;28;20891;-62
2021/10/28 02:27:37;;;;;;;39.53;7.95;;;14.10;99.90;;;;;;5043110;28;20028;-63
2021/10/28 02:30:08;;;;;;;37.90;8.45;;;14.10;99.90;;;;;;5040257;28;20021;-63
2021/10/28 02:32:36;;;;;;;40.92;8.35;;;14.10;99.90;;;;;;5043878;28;20342;-63
2021/10/28 02:35:03;;;;;;;37.10;8.35;;;14.10;99.90;;;;;;5042471;28;20349;-63
2021/10/28 02:37:29;;;;;;;36.88;7.72;;;14.20;99.90;;;;;;5044652;28;20033;-62
2021/10/28 02:39:55;;;;;;;36.10;7.78;;;14.20;99.90;;;;;;5042032;28;20025;-63
2021/10/28 02:42:21;;;;;;;38.42;7.78;;;14.20;99.90;;;;;;5042005;28;20414;-62
2021/10/28 02:44:47;;;;;;;30.00;7.80;;;14.20;99.90;;;;;;5044029;28;20215;-63
2021/10/28 02:47:14;;;;;;;40.22;8.43;;;14.20;99.90;;;;;;5041832;28;20037;-63
2021/10/28 02:49:40;;;;;;;38.90;8.15;;;14.20;99.90;;;;;;5025534;28;20208;-62
2021/10/28 02:52:06;;;;;;;32.75;7.57;;;14.20;99.90;;;;;;5042179;28;20112;-63
2021/10/28 02:54:34;;;;;;;38.67;7.45;;;14.20;99.90;;;;;;5041814;28;20033;-63
2021/10/28 02:57:01;;;;;;;32.55;7.50;;;14.10;99.90;;;;;;5042968;28;20267;-63
2021/10/28 02:59:27;;;;;;;38.30;7.40;;;14.10;99.90;;;;;;5043454;28;20315;-62
2021/10/28 03:01:56;;;;;;;36.28;7.75;;;14.10;99.90;;;;;;5041408;28;20109;-63
2021/10/28 03:04:24;;;;;;;41.80;8.93;;;14.10;99.90;;;;;;5043553;28;20025;-63
2021/10/28 03:06:51;;;;;;;31.25;7.90;;;14.00;99.90;;;;;;5041217;28;20244;-63
2021/10/28 03:09:22;;;;;;;41.90;8.77;;;13.90;99.90;;;;;;5040689;28;20041;-63
2021/10/28 03:11:50;;;;;;;46.03;9.82;;;13.90;99.90;;;;;;5042666;28;20021;-63
2021/10/28 03:15:04;;;;;;;40.22;8.60;;;13.90;99.90;;;;;;5042737;28;20553;-63
2021/10/28 03:17:22;;;;;;;47.63;9.40;;;13.90;99.90;;;;;;5031398;28;20033;-63
2021/10/28 03:27:46;;;;;;;32.53;8.18;;;13.90;99.90;;;;;;5042979;28;20120;-63
2021/10/28 03:30:13;;;;;;;30.67;6.68;;;13.90;99.90;;;;;;5040859;28;20033;-62
2021/10/28 03:32:40;;;;;;;27.70;6.55;;;13.90;99.90;;;;;;5039047;28;20072;-63
2021/10/28 03:35:09;;;;;;;24.63;5.60;;;14.00;99.90;;;;;;5039672;28;20106;-62
2021/10/28 03:37:48;;;;;;;27.20;5.65;;;14.00;99.90;;;;;;5036646;28;20029;-62
2021/10/28 03:40:29;;;;;;;29.90;6.97;;;14.10;99.90;;;;;;5040114;28;20060;-63
2021/10/28 04:31:02;;;;;;;36.10;6.80;;;14.00;99.90;;;;;;5036096;28;20276;-73
2021/10/28 04:33:28;;;;;;;31.08;6.53;;;13.90;99.90;;;;;;5035559;28;20037;-73
2021/10/28 04:35:54;;;;;;;29.50;7.97;;;13.90;99.90;;;;;;5036738;28;20144;-73
2021/10/28 04:38:20;;;;;;;33.22;7.70;;;13.90;99.90;;;;;;5018771;28;20064;-73
2021/10/28 04:40:45;;;;;;;29.48;7.78;;;13.80;99.90;;;;;;5038126;28;20025;-74
2021/10/28 04:43:11;;;;;;;37.10;6.80;;;13.80;99.90;;;;;;5038222;28;20263;-73
2021/10/28 04:45:37;;;;;;;29.67;6.85;;;13.80;99.90;;;;;;5032128;28;20041;-73
2021/10/28 04:48:05;;;;;;;35.40;8.25;;;13.80;99.90;;;;;;5034570;28;20033;-73
2021/10/28 04:50:30;;;;;;;33.22;7.78;;;13.80;99.90;;;;;;5036481;28;20316;-73
2021/10/28 04:52:56;;;;;;;25.50;7.13;;;13.80;99.90;;;;;;5031794;28;20041;-73
2021/10/28 04:55:22;;;;;;;30.00;7.80;;;13.90;99.90;;;;;;5039807;28;20247;-74
2021/10/28 04:57:48;;;;;;;34.92;8.57;;;13.90;99.90;;;;;;5034356;28;20101;-73
2021/10/28 05:00:14;;;;;;;35.42;7.82;;;13.80;99.90;;;;;;5026507;28;20033;-73
2021/10/28 05:02:40;;;;;;;34.55;7.88;;;13.80;99.90;;;;;;5036321;28;20024;-74
2021/10/28 05:05:06;;;;;;;37.88;8.85;;;13.80;99.90;;;;;;5041626;28;20155;-74
2021/10/28 05:07:31;;;;;;;26.48;7.07;;;13.80;99.90;;;;;;5038629;28;20068;-72
2021/10/28 05:09:57;;;;;;;32.85;7.97;;;13.80;99.90;;;;;;5040926;28;20078;-73
2021/10/28 05:12:24;;;;;;;24.20;7.22;;;13.80;99.90;;;;;;5038179;28;20315;-73
2021/10/28 05:14:50;;;;;;;29.92;7.20;;;13.80;99.90;;;;;;5041479;28;20036;-73
2021/10/28 05:17:15;;;;;;;23.75;6.47;;;13.80;99.90;;;;;;5041141;28;20088;-73
2021/10/28 05:19:44;;;;;;;24.60;5.80;;;13.70;99.90;;;;;;5041105;28;20036;-74
2021/10/28 05:22:10;;;;;;;36.58;7.53;;;13.80;99.90;;;;;;5039722;28;20157;-74
2021/10/28 05:24:36;;;;;;;23.52;5.82;;;13.70;99.90;;;;;;5023299;28;20029;-73
2021/10/28 05:27:02;;;;;;;24.17;6.25;;;13.80;99.90;;;;;;5041853;28;20162;-74
2021/10/28 05:29:28;;;;;;;22.58;7.22;;;13.80;99.90;;;;;;5038221;28;20108;-74
2021/10/28 05:31:54;;;;;;;33.42;8.65;;;13.70;99.90;;;;;;5042160;28;20104;-73
2021/10/28 05:34:21;;;;;;;28.20;7.40;;;13.70;99.90;;;;;;5041458;28;20366;-73
2021/10/28 05:36:47;;;;;;;31.30;7.75;;;13.60;99.90;;;;;;5041741;28;20335;-73
2021/10/28 05:39:13;;;;;;;35.85;8.27;;;13.60;99.90;;;;;;5042317;28;20036;-74
2021/10/28 05:41:39;;;;;;;26.75;7.90;;;13.60;99.90;;;;;;5039941;28;20013;-73
2021/10/28 05:44:04;;;;;;;41.70;10.15;;;13.50;99.90;;;;;;5041411;28;20049;-73
2021/10/28 05:46:30;;;;;;;24.30;7.18;;;13.60;99.90;;;;;;5036148;28;20033;-74
2021/10/28 05:48:56;;;;;;;34.75;8.07;;;13.60;99.90;;;;;;5039296;28;20119;-74
2021/10/28 05:51:24;;;;;;;30.27;8.02;;;13.60;99.90;;;;;;5041584;28;20025;-73
2021/10/28 05:53:51;;;;;;;26.05;7.47;;;13.50;99.90;;;;;;5041517;28;20340;-73
2021/10/28 05:56:16;;;;;;;30.15;8.73;;;13.50;99.90;;;;;;5041380;28;20052;-73
2021/10/28 05:58:42;;;;;;;29.02;8.43;;;13.50;99.90;;;;;;5040373;28;20035;-74
2021/10/28 06:01:08;;;;;;;39.78;8.52;;;13.50;99.90;;;;;;5045000;28;20033;-73
2021/10/28 06:03:36;;;;;;;36.60;8.63;;;13.50;99.90;;;;;;5045268;28;20308;-73
2021/10/28 06:06:02;;;;;;;32.63;8.85;;;13.50;99.90;;;;;;5044245;28;20029;-73
2021/10/28 06:08:28;;;;;;;29.80;8.93;;;13.50;99.90;;;;;;5040770;28;20041;-73
2021/10/28 06:10:54;;;;;;;26.67;7.72;;;13.50;99.90;;;;;;5042720;28;20025;-74
2021/10/28 06:13:21;;;;;;;33.63;8.40;;;13.50;99.90;;;;;;5043410;28;20036;-73
2021/10/28 06:15:48;;;;;;;33.72;8.50;;;13.50;99.90;;;;;;5027209;28;20029;-74
2021/10/28 06:18:36;;;;;;;39.67;8.52;;;13.50;99.90;;;;;;5045825;28;20100;-73
2021/10/28 06:20:59;;;;;;;35.50;9.70;;;13.50;99.90;;;;;;5044885;28;20025;-73
2021/10/28 06:23:25;;;;;;;32.63;8.55;;;13.50;99.90;;;;;;5044901;28;20284;-73
2021/10/28 06:25:51;;;;;;;31.05;8.85;;;13.40;99.90;;;;;;5043902;28;20032;-73
2021/10/28 06:28:17;;;;;;;27.42;8.52;;;13.40;99.90;;;;;;5042865;28;20241;-73
2021/10/28 06:30:43;;;;;;;23.48;8.48;;;13.40;99.90;;;;;;5044718;28;20067;-73
2021/10/28 06:33:12;;;;;;;33.50;8.70;;;13.40;99.90;;;;;;5043296;28;20084;-72
2021/10/28 06:35:39;;;;;;;28.63;9.20;;;13.40;99.90;;;;;;5044558;28;20056;-73
2021/10/28 06:38:05;;;;;;;33.85;11.45;;;13.40;99.90;;;;;;5040700;28;20032;-73
2021/10/28 06:40:31;;;;;;;36.08;10.60;;;13.40;99.90;;;;;;5044466;28;20044;-73
2021/10/28 06:42:57;;;;;;;33.65;10.63;;;13.40;99.90;;;;;;5043815;28;20025;-73
2021/10/28 06:45:23;;;;;;;32.42;10.82;;;13.30;99.90;;;;;;5044224;28;20040;-73
2021/10/28 06:47:49;;;;;;;31.45;12.00;;;13.30;99.90;;;;;;5025826;28;20048;-73
2021/10/28 06:50:18;;;;;;;36.83;11.98;;;13.40;99.90;;;;;;5042808;28;20080;-73
2021/10/28 06:52:55;;;;;;;33.75;12.65;;;13.30;99.90;;;;;;5042960;28;20025;-73
2021/10/28 06:55:33;;;;;;;35.65;11.52;;;13.30;99.90;;;;;;5039996;28;20033;-73
2021/10/28 07:03:27;;;;;;;34.85;10.48;;;13.30;99.90;;;;;;5044120;28;20037;-73
2021/10/28 07:05:55;;;;;;;30.80;11.45;;;13.40;99.90;;;;;;5044521;28;20024;-73
2021/10/28 07:08:22;;;;;;;26.60;11.15;;;13.40;99.90;;;;;;5042807;28;20083;-73
2021/10/28 07:10:51;;;;;;;32.53;11.15;;;13.30;99.90;;;;;;5042930;28;20025;-73
2021/10/28 07:13:21;;;;;;;26.50;10.27;;;13.40;99.90;;;;;;5042980;28;20441;-73
2021/10/28 07:18:27;;;;;;;30.65;10.70;;;13.40;99.90;;;;;;5042250;28;20370;-73
2021/10/28 07:21:46;;;;;;;33.92;11.00;;;13.40;99.90;;;;;;5043884;28;20056;-73
2021/10/28 07:26:35;;;;;;;32.88;9.30;;;13.40;99.90;;;;;;5042616;28;20259;-73
2021/10/28 07:56:04;;;;;;;21.77;8.00;;;13.60;99.90;;;;;;5042848;28;20309;-73
2021/10/28 08:06:25;;;;;;;20.08;7.80;;;13.60;99.90;;;;;;5042808;28;20022;-73
2021/10/28 08:19:50;;;;;;;19.88;8.00;;;13.70;99.90;;;;;;5042489;28;20291;-73
2021/10/28 08:22:20;;;;;;;25.90;8.68;;;13.70;99.90;;;;;;5042377;28;20021;-73
2021/10/28 08:30:09;;;;;;;21.88;8.45;;;13.70;99.90;;;;;;5042786;28;20025;-74
2021/10/28 08:32:36;;;;;;;21.95;8.60;;;13.80;99.90;;;;;;5042368;28;20084;-73
2021/10/28 08:35:02;;;;;;;18.90;9.23;;;13.70;99.90;;;;;;5042084;28;20045;-73
2021/10/28 08:37:53;;;;;;;30.13;9.45;;;13.70;99.90;;;;;;5042372;28;20343;-73
2021/10/28 08:40:15;;;;;;;22.35;9.50;;;13.70;99.90;;;;;;5039645;28;20240;-73
2021/10/28 08:42:44;;;;;;;24.70;10.77;;;13.70;99.90;;;;;;5038809;28;20056;-73
2021/10/28 08:45:17;;;;;;;25.08;11.07;;;13.70;99.90;;;;;;5040235;28;20025;-73
2021/10/28 08:47:53;;;;;;;28.17;10.80;;;13.70;99.90;;;;;;5042554;28;20052;-73
2021/10/28 08:50:30;;;;;;;24.65;11.07;;;13.80;99.90;;;;;;5042075;28;20607;-74
2021/10/28 09:26:25;;;;;;;29.15;15.50;;;13.70;99.90;;;;;;5040863;28;20036;-73
2021/10/28 09:29:11;;;;;;;28.52;15.82;;;13.60;99.90;;;;;;5040376;28;20025;-73
2021/10/28 09:35:01;;;;;;;34.97;18.38;;;13.50;99.90;;;;;;5019410;28;20060;-72
2021/10/28 09:51:21;;;;;;;37.97;18.10;;;13.60;99.90;;;;;;5024903;28;20025;-73
2021/10/28 09:59:55;;;;;;;32.45;18.25;;;13.70;99.90;;;;;;5025399;28;20113;-73
2021/10/28 10:02:43;;;;;;;27.92;17.73;;;13.70;99.90;;;;;;5024064;28;20041;-73
2021/10/28 10:05:24;;;;;;;25.40;16.33;;;13.80;99.90;;;;;;5025626;28;20354;-73
2021/10/28 10:07:55;;;;;;;25.77;16.33;;;13.90;99.90;;;;;;5039902;28;20022;-72
2021/10/28 10:10:22;;;;;;;28.17;16.60;;;13.90;99.90;;;;;;5025191;28;20049;-73
2021/10/28 10:12:51;;;;;;;25.60;16.48;;;13.90;99.90;;;;;;5024620;28;20025;-72
2021/10/28 10:15:18;;;;;;;32.13;16.02;;;13.90;99.90;;;;;;5025165;28;20326;-72
2021/10/28 10:18:14;;;;;;;26.98;14.48;;;14.00;99.90;;;;;;5023950;28;20025;-73
2021/10/28 10:20:49;;;;;;;33.83;16.60;;;14.30;99.90;;;;;;5016379;28;20042;-73
2021/10/28 12:14:52;;;;;;;28.05;11.68;;;14.40;99.90;;;;;;5019804;28;20298;-74
2021/10/28 12:17:44;;;;;;;23.02;10.00;;;14.80;99.90;;;;;;5019047;28;20030;-74
2021/10/28 12:44:26;;;;;;;16.90;7.93;;;16.80;99.90;;;;;;5041687;28;20033;-78
2021/10/28 15:33:31;;;;;;;20.98;8.05;;;12.90;99.90;;;;;;5030197;28;20079;-71
2021/10/28 15:35:37;;;;;;;22.77;7.90;;;12.90;99.90;;;;;;5032824;28;20043;-71
2021/10/28 15:47:18;;;;;;;17.13;7.82;;;12.70;99.90;;;;;;5010789;28;20091;-71
2021/10/28 16:22:14;;;;;;;14.65;8.07;;;12.20;99.90;;;;;;5034677;28;20040;-71
2021/10/28 16:24:44;;;;;;;19.33;8.82;;;12.20;99.90;;;;;;5035353;28;20188;-71
2021/10/28 16:27:11;;;;;;;15.50;9.10;;;12.20;99.90;;;;;;5034427;28;20037;-71
2021/10/28 16:29:37;;;;;;;15.23;8.57;;;12.20;99.90;;;;;;5020219;28;20049;-71
2021/10/28 16:32:04;;;;;;;18.50;9.98;;;12.10;99.90;;;;;;5040487;28;20040;-71
2021/10/28 16:34:30;;;;;;;17.95;9.25;;;12.10;99.90;;;;;;5039243;28;20302;-71
2021/10/28 16:36:57;;;;;;;16.05;8.45;;;12.10;99.90;;;;;;5031676;28;20045;-71
2021/10/28 16:39:24;;;;;;;16.40;9.02;;;12.10;99.90;;;;;;5037228;28;20032;-70
2021/10/28 16:41:53;;;;;;;18.30;8.90;;;12.10;99.90;;;;;;5036723;28;20345;-70
2021/10/28 16:44:19;;;;;;;14.95;8.60;;;12.10;99.90;;;;;;5037197;28;20319;-71
2021/10/28 16:46:46;;;;;;;14.60;8.43;;;12.10;99.90;;;;;;5037303;28;20045;-71
2021/10/28 16:49:13;;;;;;;15.77;9.68;;;12.10;99.90;;;;;;5038299;28;20037;-71
2021/10/28 16:51:41;;;;;;;17.90;8.95;;;12.00;99.90;;;;;;5038623;28;20021;-71
2021/10/28 16:54:08;;;;;;;14.82;9.02;;;12.10;99.90;;;;;;5035485;28;20055;-71
2021/10/28 16:56:34;;;;;;;19.33;9.40;;;12.10;99.90;;;;;;5040895;28;20036;-70
2021/10/28 16:59:00;;;;;;;19.83;10.05;;;12.10;99.90;;;;;;5038666;28;20028;-71
2021/10/28 17:01:26;;;;;;;15.82;8.32;;;12.10;99.90;;;;;;5040852;28;20024;-71
2021/10/28 17:03:53;;;;;;;16.38;9.48;;;12.00;99.90;;;;;;5040489;28;20029;-71
2021/10/28 17:06:20;;;;;;;15.50;9.20;;;12.00;99.90;;;;;;5034393;28;20278;-70
2021/10/28 17:08:47;;;;;;;20.65;10.07;;;12.00;99.90;;;;;;5040458;28;20036;-71
2021/10/28 17:11:14;;;;;;;16.83;10.10;;;12.00;99.90;;;;;;5038961;28;20092;-71
2021/10/28 17:13:42;;;;;;;21.90;10.32;;;12.00;99.90;;;;;;5039970;28;20059;-70
2021/10/28 17:16:08;;;;;;;18.52;10.23;;;11.90;99.90;;;;;;5036202;28;20032;-71
2021/10/28 17:18:34;;;;;;;15.95;9.48;;;12.00;99.90;;;;;;5040143;28;20096;-71
2021/10/28 17:21:05;;;;;;;19.60;10.38;;;11.90;99.90;;;;;;5038663;28;20256;-71
2021/10/28 17:23:35;;;;;;;19.90;10.93;;;12.00;99.90;;;;;;5040016;28;20041;-71
2021/10/28 17:26:03;;;;;;;18.65;11.25;;;12.00;99.90;;;;;;5040643;28;20037;-71
2021/10/28 17:28:31;;;;;;;18.83;11.60;;;12.00;99.90;;;;;;5038222;28;20036;-71
2021/10/28 17:30:57;;;;;;;16.73;11.00;;;12.00;99.90;;;;;;5038461;28;20048;-71
2021/10/28 17:33:23;;;;;;;19.98;11.80;;;12.00;99.90;;;;;;5039150;28;20052;-71
2021/10/28 17:35:49;;;;;;;19.60;12.93;;;11.90;99.90;;;;;;5040193;28;20464;-71
2021/10/28 17:38:15;;;;;;;18.27;11.10;;;12.00;99.90;;;;;;5021741;28;20223;-71
2021/10/28 17:40:40;;;;;;;19.10;12.23;;;12.00;99.90;;;;;;5039287;28;20056;-70
2021/10/28 17:43:10;;;;;;;23.08;14.20;;;11.90;99.90;;;;;;5037146;28;20258;-70
2021/10/28 17:45:40;;;;;;;19.05;12.77;;;11.90;99.90;;;;;;5039608;28;20025;-71
2021/10/28 17:48:07;;;;;;;25.95;13.75;;;11.90;99.90;;;;;;5035883;28;20259;-70
2021/10/28 17:50:34;;;;;;;21.83;13.25;;;11.90;99.90;;;;;;5039182;28;20029;-71
2021/10/28 17:53:01;;;;;;;20.80;13.05;;;11.90;99.90;;;;;;5031511;28;20338;-71
2021/10/28 17:55:26;;;;;;;21.77;12.68;;;12.00;99.90;;;;;;5037046;28;20396;-71
2021/10/28 17:57:52;;;;;;;20.30;14.02;;;12.00;99.90;;;;;;5042744;28;20025;-71
2021/10/28 18:00:21;;;;;;;19.15;13.27;;;12.00;99.90;;;;;;5041764;28;20355;-71
2021/10/28 18:02:47;;;;;;;19.33;13.63;;;12.00;99.90;;;;;;5041827;28;20028;-71
2021/10/28 18:05:13;;;;;;;19.75;12.25;;;12.00;99.90;;;;;;5024994;28;20033;-71
2021/10/28 18:07:39;;;;;;;23.10;13.20;;;12.00;99.90;;;;;;5045133;28;20056;-71
2021/10/28 18:10:06;;;;;;;24.02;13.68;;;12.00;99.90;;;;;;5042407;28;20359;-70
2021/10/28 18:12:35;;;;;;;20.70;12.70;;;12.00;99.90;;;;;;5042494;28;20185;-71
2021/10/28 18:15:02;;;;;;;23.02;15.75;;;12.00;99.90;;;;;;5041094;28;20036;-71
2021/10/28 18:17:28;;;;;;;21.23;13.55;;;12.00;99.90;;;;;;5043014;28;20032;-71
2021/10/28 18:19:55;;;;;;;21.92;13.45;;;12.00;99.90;;;;;;5043698;28;20060;-71
2021/10/28 18:22:21;;;;;;;22.88;13.45;;;12.00;99.90;;;;;;5043139;28;20036;-71
2021/10/28 18:24:47;;;;;;;21.10;13.60;;;12.00;99.90;;;;;;5042131;28;20028;-71
2021/10/28 18:27:13;;;;;;;23.83;13.77;;;12.00;99.90;;;;;;5043259;28;20342;-71
2021/10/28 18:29:39;;;;;;;21.77;14.13;;;12.00;99.90;;;;;;5043441;28;20028;-71
2021/10/28 18:32:09;;;;;;;21.55;14.05;;;12.00;99.90;;;;;;5042564;28;20033;-71
2021/10/28 18:34:36;;;;;;;22.27;14.02;;;11.90;99.90;;;;;;5044316;28;20052;-70
2021/10/28 18:37:02;;;;;;;24.10;15.48;;;11.90;99.90;;;;;;5039246;28;20562;-71
2021/10/28 18:39:29;;;;;;;20.15;14.10;;;11.90;99.90;;;;;;5042052;28;20040;-71
2021/10/28 18:41:57;;;;;;;22.77;13.70;;;11.90;99.90;;;;;;5043781;28;20053;-71
2021/10/28 18:44:24;;;;;;;19.73;13.30;;;12.00;99.90;;;;;;5042033;28;20402;-70
2021/10/28 18:46:51;;;;;;;24.13;14.65;;;12.00;99.90;;;;;;5040841;28;20032;-70
2021/10/28 18:49:18;;;;;;;24.27;14.45;;;11.90;99.90;;;;;;5042057;28;20033;-70
2021/10/28 18:51:47;;;;;;;23.05;14.68;;;11.90;99.90;;;;;;5035289;28;20037;-70
2021/10/28 18:54:16;;;;;;;26.10;14.85;;;11.90;99.90;;;;;;5039917;28;20072;-70
2021/10/28 18:56:42;;;;;;;28.23;15.88;;;11.90;99.90;;;;;;5040410;28;20267;-71
2021/10/28 18:59:08;;;;;;;19.38;13.50;;;11.80;99.90;;;;;;5042925;28;20260;-71
2021/10/28 19:01:36;;;;;;;22.52;14.85;;;11.80;99.90;;;;;;5038848;28;20075;-71
2021/10/28 19:04:02;;;;;;;22.70;15.30;;;11.80;99.90;;;;;;5041401;28;20032;-70
2021/10/28 19:06:28;;;;;;;19.05;13.98;;;11.70;99.90;;;;;;5040222;28;20021;-71
2021/10/28 19:08:55;;;;;;;27.50;15.75;;;11.80;99.90;;;;;;5040691;28;20037;-70
2021/10/28 19:11:24;;;;;;;25.90;14.68;;;11.70;99.90;;;;;;5041664;28;20025;-71
2021/10/28 19:13:50;;;;;;;26.48;15.48;;;11.80;99.90;;;;;;5040495;28;20041;-70
2021/10/28 19:16:16;;;;;;;22.80;15.35;;;11.80;99.90;;;;;;5006199;28;20048;-70
2021/10/28 19:18:44;;;;;;;23.25;13.65;;;11.80;99.90;;;;;;5041756;28;20025;-71
2021/10/28 19:21:11;;;;;;;21.63;14.73;;;11.80;99.90;;;;;;5040612;28;20029;-70
2021/10/28 19:23:39;;;;;;;23.98;16.08;;;11.80;99.90;;;;;;5041471;28;20037;-71
2021/10/28 19:26:05;;;;;;;23.23;15.18;;;11.80;99.90;;;;;;5033644;28;20052;-71
2021/10/28 19:28:31;;;;;;;24.70;14.80;;;11.70;99.90;;;;;;5022300;28;20048;-70
2021/10/28 19:33:31;;;;;;;23.90;14.65;;;11.80;99.90;;;;;;5042222;28;20241;-71
2021/10/28 19:36:01;;;;;;;25.67;14.90;;;11.80;99.90;;;;;;5041533;28;20410;-70
2021/10/28 19:38:48;;;;;;;20.48;14.45;;;11.80;99.90;;;;;;5042096;28;20059;-70
2021/10/28 19:46:42;;;;;;;21.50;14.57;;;11.70;99.90;;;;;;5039055;28;20063;-70
2021/10/28 19:49:08;;;;;;;24.08;15.35;;;11.70;99.90;;;;;;5043539;28;20356;-70
2021/10/28 19:51:35;;;;;;;20.90;13.68;;;11.70;99.90;;;;;;5039956;28;20565;-70
2021/10/28 19:54:02;;;;;;;30.55;16.38;;;11.70;99.90;;;;;;5023913;28;20043;-70
2021/10/28 19:56:28;;;;;;;26.50;15.40;;;11.70;99.90;;;;;;5042326;28;20057;-70
2021/10/28 19:58:59;;;;;;;33.67;16.23;;;11.70;99.90;;;;;;5038208;28;20072;-71
2021/10/28 20:06:47;;;;;;;21.73;15.73;;;11.70;99.90;;;;;;5040350;28;20029;-71
2021/10/28 20:20:20;;;;;;;21.92;14.80;;;11.60;99.90;;;;;;5036915;28;20025;-70
2021/10/28 20:22:48;;;;;;;23.33;15.98;;;11.70;99.90;;;;;;5034669;28;20028;-71
2021/10/28 20:25:21;;;;;;;22.65;15.38;;;11.70;99.90;;;;;;5036598;28;20025;-71
2021/10/28 20:27:49;;;;;;;19.52;13.88;;;11.70;99.90;;;;;;5037953;28;20315;-71
2021/10/28 20:30:21;;;;;;;23.48;15.27;;;11.60;99.90;;;;;;5038641;28;20332;-70
2021/10/28 20:32:47;;;;;;;29.23;15.00;;;11.60;99.90;;;;;;5020157;28;20440;-71
2021/10/28 20:35:27;;;;;;;24.10;14.40;;;11.60;99.90;;;;;;5039506;28;20057;-71
2021/10/28 20:37:55;;;;;;;22.63;15.23;;;11.60;99.90;;;;;;5034167;28;20215;-71
2021/10/28 20:40:21;;;;;;;25.48;15.60;;;11.60;99.90;;;;;;5036330;28;20093;-71
2021/10/28 20:42:48;;;;;;;23.80;15.20;;;11.60;99.90;;;;;;5034184;28;20083;-70
2021/10/28 20:45:22;;;;;;;21.15;14.93;;;11.60;99.90;;;;;;5038377;28;20029;-71
2021/10/28 20:47:52;;;;;;;20.80;14.90;;;11.60;99.90;;;;;;5020691;28;20025;-71
2021/10/28 20:50:19;;;;;;;23.75;15.00;;;11.50;99.90;;;;;;5040832;28;20032;-70
2021/10/28 20:52:45;;;;;;;21.85;14.50;;;11.50;99.90;;;;;;5038099;28;20055;-71
2021/10/28 20:55:12;;;;;;;18.88;14.15;;;11.50;99.90;;;;;;5042266;28;20041;-71
2021/10/28 20:57:38;;;;;;;22.73;14.55;;;11.50;99.90;;;;;;5040948;28;20380;-70
2021/10/28 21:00:07;;;;;;;22.08;13.60;;;11.50;99.90;;;;;;5042811;28;20031;-71
2021/10/28 21:02:35;;;;;;;21.25;14.25;;;11.50;99.90;;;;;;5041856;28;20088;-71
2021/10/28 21:05:02;;;;;;;20.17;14.27;;;11.40;99.90;;;;;;5042035;28;20070;-71
2021/10/28 21:07:28;;;;;;;20.60;14.23;;;11.40;99.90;;;;;;5040700;28;20036;-71
2021/10/28 21:09:54;;;;;;;20.70;14.02;;;11.40;99.90;;;;;;5041449;28;20353;-71
2021/10/28 21:12:20;;;;;;;21.42;14.52;;;11.40;99.90;;;;;;5041985;28;20045;-71
2021/10/28 21:14:46;;;;;;;19.30;13.63;;;11.30;99.90;;;;;;5041382;28;20254;-70
2021/10/28 21:17:12;;;;;;;22.48;15.07;;;11.30;99.90;;;;;;5040474;28;20033;-71
2021/10/28 21:19:38;;;;;;;22.02;14.68;;;11.30;99.90;;;;;;5039452;28;20057;-71
2021/10/28 21:22:04;;;;;;;20.55;13.60;;;11.30;99.90;;;;;;5040525;28;20032;-70
2021/10/28 21:24:31;;;;;;;28.33;15.02;;;11.30;99.90;;;;;;5022695;28;20091;-71
2021/10/28 21:26:57;;;;;;;20.40;15.38;;;11.20;99.90;;;;;;5041502;28;20026;-71
2021/10/28 21:29:22;;;;;;;25.23;15.95;;;11.20;99.90;;;;;;5024130;28;20030;-70
2021/10/28 21:31:48;;;;;;;25.77;14.90;;;11.20;99.90;;;;;;5043573;28;20076;-70
2021/10/28 21:34:14;;;;;;;24.58;14.45;;;11.20;99.90;;;;;;5045609;28;20037;-71
2021/10/28 21:36:40;;;;;;;23.65;14.35;;;11.10;99.90;;;;;;5044200;28;20037;-70
2021/10/28 21:39:06;;;;;;;22.80;13.68;;;11.10;99.90;;;;;;5046033;28;20051;-70
2021/10/28 21:41:32;;;;;;;17.02;12.27;;;11.10;99.90;;;;;;5011655;28;20116;-70
2021/10/28 21:44:00;;;;;;;22.58;14.38;;;11.10;99.90;;;;;;5040615;28;20095;-71
2021/10/28 21:46:30;;;;;;;21.98;14.20;;;11.00;99.90;;;;;;5045403;28;20103;-71
2021/10/28 21:48:57;;;;;;;20.10;13.63;;;11.00;99.90;;;;;;5044809;28;20013;-70
2021/10/28 21:51:24;;;;;;;21.10;13.98;;;11.00;99.90;;;;;;5044063;28;20230;-71
2021/10/28 21:53:52;;;;;;;20.38;14.35;;;11.00;99.90;;;;;;5043450;28;20037;-71